createdAt,value
2022-08-12T00:05:08.964Z,99195.88
2022-08-12T00:11:12.441Z,99197.64
2022-08-12T00:18:03.525Z,99191.71
2022-08-12T00:25:03.339Z,99194.25
2022-08-12T00:31:51.255Z,99191.82
2022-08-12T00:38:35.590Z,99190.87
2022-08-12T00:45:35.813Z,99182.69
2022-08-12T00:52:00.705Z,99180.54
2022-08-12T00:58:42.334Z,99179.73
2022-08-12T01:05:44.291Z,99182.52
2022-08-12T01:12:09.281Z,99179.52
2022-08-12T01:18:34.901Z,99184.95
2022-08-12T01:25:32.987Z,99186.43
2022-08-12T01:32:12.419Z,99183.13
2022-08-12T01:39:05.744Z,99180.94
2022-08-12T01:46:04.434Z,99185.05
2022-08-12T01:52:42.768Z,99181.09
2022-08-12T01:59:12.627Z,99174.30
2022-08-12T02:06:35.926Z,99167.14
2022-08-12T02:13:48.321Z,99171.13
2022-08-12T02:20:51.389Z,99169.19
2022-08-12T02:27:39.293Z,99171.00
2022-08-12T02:34:42.778Z,99164.11
2022-08-12T02:41:07.241Z,99169.41
2022-08-12T02:48:08.657Z,99165.93
2022-08-12T02:54:28.385Z,99163.09
2022-08-12T03:01:03.657Z,99158.30
2022-08-12T03:08:14.294Z,99152.38
2022-08-12T03:15:35.173Z,99148.77
2022-08-12T03:22:19.302Z,99144.42
2022-08-12T03:29:11.807Z,99148.19
2022-08-12T03:35:56.927Z,99145.27
2022-08-12T03:43:05.289Z,99148.77
2022-08-12T03:49:44.667Z,99153.02
2022-08-12T03:57:06.358Z,99142.92
2022-08-12T04:04:13.163Z,99134.93
2022-08-12T04:11:02.878Z,99128.98
2022-08-12T04:17:09.453Z,99129.54
2022-08-12T04:23:46.232Z,99138.51
2022-08-12T04:30:40.330Z,99147.77
2022-08-12T04:36:38.324Z,99154.54
2022-08-12T04:44:00.148Z,99159.88
2022-08-12T04:50:35.265Z,99155.64
2022-08-12T04:57:13.255Z,99165.74
2022-08-12T05:04:16.310Z,99163.14
2022-08-12T05:11:14.526Z,99160.23
2022-08-12T05:17:55.319Z,99155.14
2022-08-12T05:24:58.764Z,99145.66
2022-08-12T05:31:47.786Z,99151.20
2022-08-12T05:38:13.434Z,99152.33
2022-08-12T05:45:06.309Z,99153.50
2022-08-12T05:52:09.964Z,99155.39
2022-08-12T05:58:55.462Z,99162.11
2022-08-12T06:05:10.663Z,99169.56
2022-08-12T06:11:31.660Z,99168.98
2022-08-12T06:17:56.213Z,99168.19
2022-08-12T06:23:42.518Z,99167.02
2022-08-12T06:30:09.042Z,99164.66
2022-08-12T06:35:52.371Z,99172.70
2022-08-12T06:42:31.840Z,99175.30
2022-08-12T06:48:07.170Z,99174.30
2022-08-12T06:54:00.955Z,99179.35
2022-08-12T07:00:13.206Z,99178.17
2022-08-12T07:06:42.360Z,99175.53
2022-08-12T07:14:02.459Z,99173.61
2022-08-12T07:20:04.487Z,99168.27
2022-08-12T07:25:41.709Z,99175.52
2022-08-12T07:31:37.734Z,99171.20
2022-08-12T07:37:25.737Z,99169.80
2022-08-12T07:44:04.356Z,99165.77
2022-08-12T07:50:06.624Z,99153.94
2022-08-12T07:56:29.086Z,99154.59
2022-08-12T08:01:49.911Z,99157.36
2022-08-12T08:07:38.806Z,99160.67
2022-08-12T08:13:24.458Z,99164.23
2022-08-12T08:18:53.505Z,99172.46
2022-08-12T08:24:28.170Z,99175.59
2022-08-12T08:30:19.605Z,99182.11
2022-08-12T08:35:57.307Z,99180.40
2022-08-12T08:42:18.802Z,99172.14
2022-08-12T08:47:44.302Z,99167.40
2022-08-12T08:53:36.569Z,99167.80
2022-08-12T08:59:04.680Z,99170.83
2022-08-12T09:05:07.873Z,99173.41
2022-08-12T09:16:23.223Z,99160.80
2022-08-12T09:22:04.827Z,99164.52
2022-08-12T09:28:15.904Z,99164.20
2022-08-12T09:34:27.833Z,99172.35
2022-08-12T09:40:02.372Z,99167.02
2022-08-12T09:46:19.684Z,99168.49
2022-08-12T09:51:22.124Z,99167.13
2022-08-12T09:56:58.276Z,99163.67
2022-08-12T10:02:45.788Z,99159.85
2022-08-12T10:07:39.874Z,99155.39
2022-08-12T10:13:12.345Z,99153.09
2022-08-12T10:18:51.726Z,99148.94
2022-08-12T10:24:25.036Z,99140.99
2022-08-12T10:30:38.702Z,99134.73
2022-08-12T10:35:54.147Z,99130.70
2022-08-12T10:42:29.454Z,99125.29
2022-08-12T10:48:20.122Z,99118.36
2022-08-12T10:54:22.491Z,99109.10
2022-08-12T11:00:30.826Z,99103.15
2022-08-12T11:07:09.740Z,99100.02
2022-08-12T11:11:13.928Z,99082.17
2022-08-12T11:16:27.780Z,99080.61
2022-08-12T11:21:58.352Z,99082.89
2022-08-12T11:27:22.442Z,99082.80
2022-08-12T11:33:11.786Z,99082.89
2022-08-12T11:38:20.364Z,99084.79
2022-08-12T11:43:25.350Z,99078.02
2022-08-12T11:48:57.811Z,99076.84
2022-08-12T11:54:04.662Z,99075.83
2022-08-12T12:04:37.377Z,99073.39
2022-08-12T12:09:52.935Z,99072.05
2022-08-12T12:15:07.109Z,99068.80
2022-08-12T12:20:12.495Z,99070.04
2022-08-12T12:26:07.412Z,99073.44
2022-08-12T12:31:14.910Z,99064.02
2022-08-12T12:36:54.798Z,99062.02
2022-08-12T12:42:43.230Z,99056.79
2022-08-12T12:48:10.922Z,99052.66
2022-08-12T12:54:07.948Z,99046.05
2022-08-12T12:58:44.810Z,99041.44
2022-08-12T13:03:55.386Z,99037.45
2022-08-12T13:09:03.010Z,99035.23
2022-08-12T13:14:12.086Z,99031.43
2022-08-12T13:19:38.919Z,99023.52
2022-08-12T13:24:54.518Z,99021.66
2022-08-12T13:30:23.750Z,99021.92
2022-08-12T13:36:05.046Z,99012.73
2022-08-12T13:41:37.925Z,99008.73
2022-08-12T13:46:58.990Z,99008.36
2022-08-12T13:52:15.404Z,98998.89
2022-08-12T13:57:46.828Z,98993.95
2022-08-12T14:02:53.137Z,98994.13
2022-08-12T14:08:08.719Z,98983.85
2022-08-12T14:14:06.104Z,98982.67
2022-08-12T14:19:21.907Z,98982.20
2022-08-12T14:24:35.668Z,98974.48
2022-08-12T14:30:04.380Z,98972.49
2022-08-12T14:35:41.097Z,98967.45
2022-08-12T14:40:53.265Z,98957.73
2022-08-12T14:46:19.930Z,98951.35
2022-08-12T14:52:44.180Z,98952.84
2022-08-12T14:57:20.604Z,98946.71
2022-08-12T15:02:15.840Z,98943.16
2022-08-12T15:07:43.649Z,98945.20
2022-08-12T15:12:52.061Z,98951.84
2022-08-12T15:18:02.459Z,98955.13
2022-08-12T15:23:18.173Z,98948.43
2022-08-12T15:28:30.766Z,98945.29
2022-08-12T15:33:44.675Z,98943.18
2022-08-12T15:38:48.035Z,98945.21
2022-08-12T15:44:15.823Z,98944.23
2022-08-12T15:49:19.371Z,98941.05
2022-08-12T15:54:44.640Z,98939.73
2022-08-12T16:00:03.842Z,98935.33
2022-08-12T16:06:15.625Z,98936.66
2022-08-12T16:10:53.997Z,98933.35
2022-08-12T16:16:23.595Z,98929.05
2022-08-12T16:21:50.272Z,98927.42
2022-08-12T16:26:54.055Z,98926.09
2022-08-12T16:32:07.483Z,98918.86
2022-08-12T16:38:24.902Z,98923.80
2022-08-12T16:43:37.284Z,98919.95
2022-08-12T16:48:39.650Z,98912.56
2022-08-12T16:53:45.653Z,98903.92
2022-08-12T16:59:00.733Z,98898.48
2022-08-12T17:04:14.354Z,98892.28
2022-08-12T17:09:39.887Z,98888.60
2022-08-12T17:14:47.238Z,98882.66
2022-08-12T17:20:34.505Z,98882.27
2022-08-12T17:26:06.668Z,98879.67
2022-08-12T17:32:01.713Z,98882.25
2022-08-12T17:37:04.809Z,98883.04
2022-08-12T17:42:51.043Z,98886.07
2022-08-12T17:48:17.547Z,98890.86
2022-08-12T17:54:10.494Z,98888.58
2022-08-12T17:59:47.892Z,98889.20
2022-08-12T18:05:55.492Z,98887.84
2022-08-12T18:12:03.718Z,98894.94
2022-08-12T18:18:51.095Z,98894.02
2022-08-12T18:25:06.346Z,98894.04
2022-08-12T18:30:43.544Z,98894.91
2022-08-12T18:36:50.327Z,98898.63
2022-08-12T18:43:02.597Z,98893.08
2022-08-12T18:49:34.623Z,98893.83
2022-08-12T18:56:06.107Z,98897.41
2022-08-12T19:02:19.686Z,98899.10
2022-08-12T19:08:24.660Z,98903.83
2022-08-12T19:15:18.350Z,98901.08
2022-08-12T19:21:32.142Z,98902.09
2022-08-12T19:27:08.514Z,98903.73
2022-08-12T19:33:39.534Z,98910.34
2022-08-12T19:40:31.392Z,98919.38
2022-08-12T19:46:18.676Z,98920.04
2022-08-12T19:52:32.702Z,98918.71
2022-08-12T19:58:41.682Z,98914.82
2022-08-12T20:04:38.680Z,98907.71
2022-08-12T20:10:35.078Z,98908.75
2022-08-12T20:16:04.168Z,98906.80
2022-08-12T20:21:48.254Z,98911.90
2022-08-12T20:28:31.564Z,98918.78
2022-08-12T20:34:48.285Z,98920.27
2022-08-12T20:40:58.690Z,98921.69
2022-08-12T20:46:37.965Z,98920.70
2022-08-12T20:52:29.878Z,98926.23
2022-08-12T20:58:31.056Z,98917.75
2022-08-12T21:04:36.906Z,98918.77
2022-08-12T21:10:26.516Z,98920.30
2022-08-12T21:17:34.015Z,98925.80
2022-08-12T21:23:59.140Z,98922.27
2022-08-12T21:30:12.704Z,98920.34
2022-08-12T21:36:48.353Z,98909.02
2022-08-12T21:42:27.770Z,98902.84
2022-08-12T21:47:37.867Z,98899.07
2022-08-12T21:54:07.196Z,98890.66
2022-08-12T22:00:35.172Z,98888.15
2022-08-12T22:06:42.907Z,98885.95
2022-08-12T22:12:54.810Z,98886.15
2022-08-12T22:19:03.639Z,98892.07
2022-08-12T22:25:09.267Z,98890.44
2022-08-12T22:31:30.038Z,98894.48
2022-08-12T22:37:53.469Z,98887.97
2022-08-12T22:44:54.820Z,98884.30
2022-08-12T22:51:59.708Z,98880.95
2022-08-12T22:58:18.854Z,98879.13
2022-08-12T23:05:00.902Z,98877.90
2022-08-12T23:11:08.576Z,98872.48
2022-08-12T23:17:21.333Z,98862.60
2022-08-12T23:23:26.728Z,98864.19
2022-08-12T23:30:18.584Z,98852.52
2022-08-12T23:36:17.715Z,98841.92
2022-08-12T23:42:17.772Z,98833.48
2022-08-12T23:48:31.340Z,98833.13
2022-08-12T23:54:32.743Z,98821.66
2022-08-12T23:59:48.564Z,98813.34
